Latest Weather Observations for Paraburdoo

IDW60801

Issued at 11:33 pm WST Friday 28 April 2017 (issued every 30 minutes, with the page automatically refreshed every 10 minutes)

About weather observations | Map of weather stations | Latest weather observations for WA | Other Formats
Station Details ID: 007185 Name: PARABURDOO AERO Lat: -23.17 Lon: 117.75 Height: 423.7 m
Data from the previous 72 hours. | See also: Recent months at Paraburdoo
Date/Time
WST
Temp
°C
App
Temp
°C
Dew
Point
°C
Rel
Hum
%
Delta-T
°C
Wind Press
QNH
hPa
Press
MSL
hPa
Rain since
9am
mm
Dir  Spd
km/h
Gust
km/h
Spd
kts
Gust
kts
28/11:30pm 22.3 18.5 7.7 39 7.8 ENE 17 19 9 10 1018.4 1015.8 0.0
28/11:00pm 22.6 19.6 7.6 38 8.0 ENE 13 15 7 8 1018.7 1016.0 0.0
28/10:30pm 24.3 21.2 7.4 34 9.0 E 13 19 7 10 1018.9 1016.2 0.0
28/10:00pm 24.3 21.0 7.9 35 8.8 E 15 20 8 11 1019.0 1016.3 0.0
28/09:30pm 24.0 21.5 8.0 36 8.6 ENE 11 13 6 7 1019.1 1016.4 0.0
28/09:00pm 24.5 21.6 8.0 35 8.9 ESE 13 17 7 9 1019.0 1016.3 0.0
28/08:30pm 24.0 21.5 8.0 36 8.6 ESE 11 13 6 7 1019.0 1016.3 0.0
28/08:00pm 24.2 22.4 7.8 35 8.8 SE 7 9 4 5 1019.0 1016.3 0.0
28/07:30pm 25.3 23.0 7.4 32 9.6 SSE 9 13 5 7 1018.8 1016.1 0.0
28/07:00pm 24.9 22.6 7.5 33 9.3 SSE 9 13 5 7 1018.4 1015.8 0.0
28/06:30pm 26.2 23.9 7.3 30 10.2 S 9 11 5 6 1018.0 1015.4 0.0
28/06:00pm 27.6 25.2 6.9 27 11.2 S 9 11 5 6 1017.6 1014.9 0.0
28/05:30pm 28.6 25.1 7.2 26 11.7 SSW 15 19 8 10 1017.3 1014.6 0.0
28/05:00pm 29.6 26.0 6.9 24 12.4 S 15 20 8 11 1017.1 1014.4 0.0
28/04:30pm 30.2 26.7 7.4 24 12.6 SW 15 20 8 11 1016.9 1014.2 0.0
28/04:00pm 30.2 27.1 7.4 24 12.6 SW 13 20 7 11 1016.7 1014.0 0.0
28/03:30pm 30.6 27.2 7.7 24 12.7 SW 15 20 8 11 1016.7 1014.0 0.0
28/03:00pm 30.1 28.1 7.3 24 12.6 S 7 20 4 11 1016.8 1014.1 0.0
28/02:30pm 30.5 26.6 7.0 23 12.9 SW 17 24 9 13 1016.9 1014.2 0.0
28/02:00pm 30.5 26.7 7.7 24 12.7 SSW 17 22 9 12 1017.2 1014.5 0.0
28/01:30pm 30.6 28.9 8.3 25 12.5 SSE 7 17 4 9 1017.4 1014.7 0.0
28/01:00pm 29.8 27.6 7.7 25 12.2 SW 9 19 5 10 1017.8 1015.2 0.0
28/12:30pm 29.3 27.1 7.8 26 11.9 SSE 9 13 5 7 1018.6 1015.9 0.0
28/12:00pm 28.7 25.4 7.9 27 11.5 SSE 15 20 8 11 1019.1 1016.4 0.0
28/11:30am 28.0 25.3 7.3 27 11.3 ENE 11 24 6 13 1019.7 1017.0 0.0
28/11:00am 28.1 24.8 7.9 28 11.1 ENE 15 22 8 12 1020.1 1017.5 0.0
28/10:30am 27.2 23.3 7.1 28 10.9 ENE 17 22 9 12 1020.5 1017.9 0.0
28/10:00am 26.1 21.5 6.7 29 10.3 ENE 20 26 11 14 1020.6 1018.0 0.0
28/09:30am 25.3 21.0 7.0 31 9.8 NE 19 24 10 13 1020.8 1018.2 0.0
28/09:00am 24.6 20.1 6.8 32 9.4 ENE 20 26 11 14 1020.8 1018.2 0.0
28/08:30am 23.5 18.9 6.7 34 8.8 ENE 20 28 11 15 1020.7 1018.1 0.0
28/08:00am 22.4 18.3 6.2 35 8.4 ENE 17 24 9 13 1020.7 1018.1 0.0
28/07:30am 20.9 17.8 7.2 41 7.2 NE 13 15 7 8 1020.5 1017.9 0.0
28/07:00am 19.1 16.7 7.2 46 6.1 ENE 9 11 5 6 1020.3 1017.7 0.0
28/06:30am 18.1 15.7 6.9 48 5.7 ENE 9 11 5 6 1020.1 1017.5 0.0
28/06:00am 18.5 15.7 7.0 47 5.9 ENE 11 13 6 7 1020.0 1017.4 0.0
28/05:30am 18.9 15.7 7.0 46 6.1 ENE 13 22 7 12 1019.9 1017.3 0.0
28/05:00am 19.2 16.0 7.0 45 6.3 NE 13 15 7 8 1019.9 1017.3 0.0
28/04:30am 20.1 17.0 7.1 43 6.8 ENE 13 17 7 9 1019.6 1016.9 0.0
28/04:00am 20.2 17.1 7.2 43 6.8 E 13 17 7 9 1019.6 1016.9 0.0
28/03:30am 20.2 17.2 7.6 44 6.6 ENE 13 15 7 8 1019.5 1016.8 0.0
28/03:00am 20.3 17.4 8.0 45 6.5 ENE 13 15 7 8 1019.4 1016.7 0.0
28/02:30am 20.3 17.4 8.3 46 6.4 ENE 13 19 7 10 1019.4 1016.7 0.0
28/02:00am 19.8 16.9 8.2 47 6.1 ENE 13 17 7 9 1019.5 1016.8 0.0
28/01:30am 20.0 16.4 8.4 47 6.2 NE 17 17 9 9 1019.7 1017.0 0.0
28/01:00am 19.6 16.7 8.3 48 6.0 ENE 13 15 7 8 1019.7 1017.0 0.0
28/12:30am 19.9 16.9 7.9 46 6.3 ENE 13 15 7 8 1019.8 1017.1 0.0
28/12:00am 20.4 17.5 8.1 45 6.5 ENE 13 13 7 7 1019.8 1017.1 0.0
 
Date/Time
WST
Temp
°C
App
Temp
°C
Dew
Point
°C
Rel
Hum
%
Delta-T
°C
Wind Press
QNH
hPa
Press
MSL
hPa
Rain since
9am
mm
Dir  Spd
km/h
Gust
km/h
Spd
kts
Gust
kts
27/11:30pm 21.1 18.2 8.0 43 7.0 ENE 13 15 7 8 1019.9 1017.3 0.0
27/11:00pm 22.0 19.1 8.2 41 7.4 ENE 13 17 7 9 1019.9 1017.3 0.0
27/10:30pm 23.8 20.4 7.8 36 8.6 ENE 15 19 8 10 1020.0 1017.4 0.0
27/10:00pm 24.3 21.0 7.9 35 8.8 E 15 20 8 11 1019.9 1017.3 0.0
27/09:30pm 24.9 20.6 8.0 34 9.2 E 20 28 11 15 1019.9 1017.3 0.0
27/09:00pm 25.3 21.0 7.9 33 9.4 E 20 30 11 16 1019.6 1016.9 0.0
27/08:30pm 25.7 21.6 7.8 32 9.7 ESE 19 26 10 14 1019.4 1016.7 0.0
27/08:00pm 25.8 21.9 8.8 34 9.4 ESE 19 26 10 14 1019.2 1016.5 0.0
27/07:30pm 26.2 23.2 9.1 34 9.5 ESE 15 20 8 11 1018.9 1016.2 0.0
27/07:00pm 26.3 23.7 9.2 34 9.5 ESE 13 17 7 9 1018.6 1015.9 0.0
27/06:30pm 26.9 23.9 9.3 33 9.9 ESE 15 19 8 10 1018.1 1015.5 0.0
27/06:00pm 27.3 25.2 9.6 33 10.0 SE 11 15 6 8 1017.7 1015.0 0.0
27/05:30pm 28.4 25.9 9.6 31 10.7 S 13 20 7 11 1017.5 1014.8 0.0
27/05:00pm 28.9 26.1 10.1 31 10.8 SSE 15 20 8 11 1017.3 1014.6 0.0
27/04:30pm 29.3 25.5 9.9 30 11.1 SSE 20 28 11 15 1017.1 1014.4 0.0
27/04:00pm 30.0 26.8 10.0 29 11.5 SE 17 24 9 13 1017.0 1014.3 0.0
27/03:30pm 29.8 27.1 10.4 30 11.2 S 15 24 8 13 1017.0 1014.3 0.0
27/03:00pm 30.0 26.8 10.0 29 11.5 S 17 26 9 14 1017.0 1014.3 0.0
27/02:30pm 30.9 27.4 10.3 28 12.0 S 19 28 10 15 1017.1 1014.4 0.0
27/02:00pm 30.4 27.9 9.8 28 11.8 ESE 13 22 7 12 1017.1 1014.4 0.0
27/01:30pm 29.6 27.0 9.2 28 11.6 ESE 13 24 7 13 1017.5 1014.8 0.0
27/01:00pm 29.6 27.1 9.7 29 11.4 SE 13 22 7 12 1017.9 1015.3 0.0
27/12:30pm 28.7 25.9 9.9 31 10.7 SSE 15 24 8 13 1018.6 1015.9 0.0
27/12:00pm 28.1 24.9 8.4 29 10.9 SE 15 24 8 13 1019.1 1016.4 0.0
27/11:30am 27.9 25.4 8.2 29 10.9 SE 11 19 6 10 1019.7 1017.0 0.0
27/11:00am 26.1 22.2 7.2 30 10.2 ESE 17 20 9 11 1020.2 1017.6 0.0
27/10:30am 25.6 22.0 6.8 30 10.0 E 15 22 8 12 1020.9 1018.3 0.0
27/10:00am 25.3 20.7 6.5 30 9.9 E 20 30 11 16 1021.2 1018.5 0.0
27/09:30am 23.4 18.0 6.2 33 9.0 E 24 30 13 16 1021.4 1018.7 0.0
27/09:00am 22.8 17.3 5.7 33 8.8 ENE 24 32 13 17 1021.4 1018.7 0.0
27/08:30am 23.4 18.3 6.2 33 9.0 E 22 28 12 15 1021.2 1018.5 0.0
27/08:00am 21.6 17.8 5.9 36 8.0 E 15 19 8 10 1021.6 1018.9 0.0
27/07:30am 20.7 17.0 6.3 39 7.4 ESE 15 20 8 11 1021.2 1018.5 0.0
27/07:00am 19.1 17.6 6.6 44 6.4 ENE 4 9 2 5 1021.1 1018.4 0.0
27/06:30am 17.8 16.9 6.0 46 5.9 CALM 0 0 0 0 1020.7 1018.1 0.0
27/06:00am 17.7 15.5 6.3 47 5.7 ENE 7 9 4 5 1020.4 1017.8 0.0
27/05:30am 18.6 15.9 5.5 42 6.5 ESE 9 11 5 6 1020.3 1017.7 0.0
27/05:00am 18.5 15.1 6.0 44 6.3 E 13 15 7 8 1020.0 1017.4 0.0
27/04:30am 18.5 15.1 6.0 44 6.3 ENE 13 15 7 8 1020.1 1017.5 0.0
27/04:00am 19.0 17.4 6.2 43 6.5 E 4 9 2 5 1020.2 1017.6 0.0
27/03:30am 19.5 16.5 5.9 41 6.9 E 11 13 6 7 1019.9 1017.3 0.0
27/03:00am 19.9 16.6 6.6 42 6.8 NE 13 15 7 8 1020.1 1017.5 0.0
27/02:30am 20.7 17.3 5.9 38 7.5 ENE 13 19 7 10 1020.1 1017.5 0.0
27/02:00am 21.9 17.9 6.6 37 7.9 ENE 17 22 9 12 1020.2 1017.6 0.0
27/01:30am 21.8 17.3 6.9 38 7.8 E 20 26 11 14 1020.2 1017.6 0.0
27/01:00am 22.1 17.7 7.5 39 7.7 ENE 20 26 11 14 1020.4 1017.8 0.0
27/12:30am 22.5 18.3 8.2 40 7.7 E 20 32 11 17 1020.2 1017.6 0.0
27/12:00am 22.8 18.6 8.1 39 7.9 E 20 32 11 17 1020.3 1017.7 0.0
 
Date/Time
WST
Temp
°C
App
Temp
°C
Dew
Point
°C
Rel
Hum
%
Delta-T
°C
Wind Press
QNH
hPa
Press
MSL
hPa
Rain since
9am
mm
Dir  Spd
km/h
Gust
km/h
Spd
kts
Gust
kts
26/11:30pm 23.0 18.9 8.7 40 7.8 E 20 28 11 15 1020.6 1018.0 0.0
26/11:00pm 23.1 19.3 9.1 41 7.7 E 19 26 10 14 1020.9 1018.3 0.0
26/10:30pm 23.6 19.3 9.2 40 7.9 E 22 32 12 17 1020.9 1018.3 0.0
26/10:00pm 23.8 19.1 9.4 40 7.9 E 24 33 13 18 1020.9 1018.3 0.0
26/09:30pm 24.0 20.1 9.6 40 8.0 ESE 20 28 11 15 1020.9 1018.3 0.0
26/09:00pm 24.3 20.1 9.8 40 8.1 ESE 22 32 12 17 1020.7 1018.1 0.0
26/08:30pm 24.4 20.6 9.9 40 8.1 ESE 20 28 11 15 1020.6 1018.0 0.0
26/08:00pm 24.5 20.5 10.4 41 7.9 ESE 22 32 12 17 1020.2 1017.6 0.0
26/07:30pm 24.8 21.3 10.3 40 8.2 ESE 19 26 10 14 1019.9 1017.3 0.0
26/07:00pm 25.2 21.8 10.6 40 8.3 ESE 19 26 10 14 1019.3 1016.6 0.0
26/06:30pm 25.8 22.4 11.2 40 8.4 ESE 20 28 11 15 1018.9 1016.2 0.0
26/06:00pm 26.3 24.2 12.4 42 8.2 E 15 20 8 11 1018.3 1015.7 0.0
26/05:30pm 26.6 23.7 12.3 41 8.4 E 19 28 10 15 1017.8 1015.2 0.0
26/05:00pm 27.0 24.2 12.6 41 8.5 E 19 24 10 13 1017.5 1014.8 0.0
26/04:30pm 27.5 24.7 12.7 40 8.8 E 19 24 10 13 1017.4 1014.7 0.0
26/04:00pm 27.6 25.5 12.4 39 9.0 ESE 15 22 8 12 1017.1 1014.4 0.0
26/03:30pm 27.6 25.6 12.8 40 8.8 ESE 15 24 8 13 1017.1 1014.4 0.0
26/03:00pm 27.5 24.6 12.3 39 9.0 E 19 24 10 13 1017.1 1014.4 0.0
26/02:30pm 27.4 25.4 12.6 40 8.8 ESE 15 20 8 11 1017.1 1014.4 0.0
26/02:00pm 27.0 25.1 13.0 42 8.3 ESE 15 24 8 13 1017.2 1014.5 0.0
26/01:30pm 26.8 24.2 13.2 43 8.1 ESE 19 26 10 14 1017.4 1014.7 0.0
26/01:00pm 26.7 24.5 13.4 43 8.0 ESE 17 24 9 13 1017.6 1014.9 0.0
26/12:30pm 26.2 24.0 13.3 45 7.7 ESE 17 22 9 12 1017.9 1015.3 0.0
26/12:00pm 26.9 25.2 13.6 44 8.0 E 15 24 8 13 1018.4 1015.8 0.0
26/11:30am 26.1 23.5 13.2 44 7.7 E 19 24 10 13 1019.1 1016.4 0.0
26/11:00am 25.5 23.3 13.4 47 7.2 E 17 28 9 15 1019.3 1016.6 0.0
26/10:30am 24.8 22.1 13.4 49 6.8 E 20 28 11 15 1019.9 1017.3 0.0
26/10:00am 23.6 20.4 13.2 52 6.1 E 22 30 12 16 1020.1 1017.5 0.0
26/09:30am 23.2 19.6 13.1 53 5.9 E 24 33 13 18 1020.4 1017.8 0.0
26/09:00am 23.3 20.6 13.5 54 5.8 ENE 20 30 11 16 1020.2 1017.6 0.0
26/08:30am 23.0 20.1 14.0 57 5.4 E 22 33 12 18 1020.2 1017.6 0.0
26/08:00am 21.7 18.5 13.1 58 5.0 ENE 22 32 12 17 1020.0 1017.4 0.0
26/07:30am 21.9 18.4 13.3 58 5.0 ENE 24 37 13 20 1019.9 1017.3 0.0
26/07:00am 21.6 19.5 13.5 60 4.7 ENE 17 24 9 13 1019.7 1017.0 0.0
26/06:30am 21.6 18.5 13.5 60 4.8 ENE 22 32 12 17 1019.2 1016.5 0.0
26/06:00am 21.6 18.5 13.5 60 4.7 E 22 35 12 19 1018.8 1016.1 0.0
26/05:30am 21.7 18.4 13.9 61 4.6 E 24 35 13 19 1018.6 1015.9 0.0
26/05:00am 21.9 18.7 14.3 62 4.5 E 24 33 13 18 1018.6 1015.9 0.0
26/04:30am 22.0 20.4 14.9 64 4.3 E 17 24 9 13 1018.6 1015.9 0.0
26/04:00am 21.8 19.1 14.7 64 4.3 E 22 30 12 16 1018.3 1015.7 0.0
26/03:30am 22.6 20.4 15.9 66 4.1 E 22 30 12 16 1018.1 1015.5 0.0
26/03:00am 23.0 21.4 16.5 67 4.0 E 20 32 11 17 1018.2 1015.6 0.0
26/02:30am 23.2 21.8 17.0 68 3.9 E 20 33 11 18 1018.2 1015.6 0.0
26/02:00am 23.4 22.0 16.9 67 4.1 E 20 28 11 15 1018.1 1015.5 0.0
26/01:30am 23.6 21.9 17.1 67 4.1 ESE 22 35 12 19 1018.1 1015.5 0.0
26/01:00am 24.1 22.4 17.1 65 4.4 E 22 33 12 18 1018.0 1015.4 0.0
26/12:30am 24.3 23.1 17.5 66 4.3 E 20 30 11 16 1018.1 1015.5 0.0
26/12:00am 24.0 23.3 18.2 70 3.7 ESE 19 28 10 15 1018.1 1015.5 0.0

Other Formats:

Comma delimited format used in spreadsheet applications
http://www.bom.gov.au/fwo/IDW60801/IDW60801.94316.axf

JavaScript Object Notation format (JSON) in row-major order
http://www.bom.gov.au/fwo/IDW60801/IDW60801.94316.json